Urbandale, Illinois
Current Conditions -  °F | °C
As of 3:35 PM on Saturday 25 Oct 2014 (Local Time) from KCIR Reporting Station
Clear Clear  
Wind Chill: 82°   Ceiling: Unl
Heat Index: 83°   Visibility: 10mi
Dew Point: 61°   Wind: 3mph
Humidity: 48%   Direction: 310°NW
Pressure: 30"   Gusts: NA
Location:  37.048°N, 89.2036°W
Report Text: KCIR 252035Z AUTO 31003KT 10SM CLR 28/16 A3000 RMK AO2 P0001 T02790161
Loading
Personal Weather Stations






























Interactive Weather Map
Tropical Storm Tracking
New forecast layout! Learn more

10-Day Weather Forecast

Advertisements
Track Severe Weather on mobile